OOCL Nagoya — VRFX8 — position and weather

sailwx.info

Track history (hours):
 
Tides and Currents Weather Stations Pressure Air Temp Water Temp Dewpoint Dewpoint Depression Visibility Wind Speed Wind Dir Waves Ship Positions

OOCL Nagoya

Last reported at 2015-Jul-01 03:33 UTC. Time now 2015-Jul-04 05:07 UTC.
Position N 22°07' E 114°21'.

Length 261 m; draft 9 m.

Type: Cargo ship. MMSI: 477627900.

Date/timePositionNaut miles runAvg speedWind from/ knotsBaromVisibWave heightAir tempDewpointWater temp
2015-Jul-01 03:33N 22°07' E 114°21'1613.9
2015-Jul-01 02:22N 22°16' E 114°06'910.0
2015-Jul-01 01:31N 22°21' E 113°58'8 7.6
2015-Jul-01 00:32N 22°27' E 113°53'1 0.9
2015-Jun-30 23:29N 22°27' E 113°54'0 0.0
2015-Jun-30 22:29N 22°27' E 113°54'0 0.0
2015-Jun-30 21:29N 22°27' E 113°54'0 0.0
2015-Jun-30 20:29N 22°27' E 113°54'0 0.0
2015-Jun-30 19:23N 22°27' E 113°54'0 0.0
2015-Jun-30 18:29N 22°27' E 113°54'0 0.0
2015-Jun-30 17:29N 22°27' E 113°54'0 0.0
2015-Jun-30 16:29N 22°27' E 113°54'0 0.0
2015-Jun-30 15:29N 22°27' E 113°54'0 0.0
2015-Jun-30 14:30N 22°27' E 113°54'5 4.8
2015-Jun-30 13:33N 22°23' E 113°54'10 9.7
2015-Jun-30 12:29N 22°20' E 114°05'2 2.1
2015-Jun-30 11:26N 22°21' E 114°07'0 0.0
2015-Jun-30 01:23N 22°21' E 114°07'0 0.0
2015-Jun-30 00:23N 22°21' E 114°07'3 3.3
2015-Jun-29 23:33N 22°18' E 114°06'10 9.1
2015-Jun-29 22:26N 22°10' E 114°13'7 8.1
2015-Jun-29 21:34N 22°09' E 114°20'8 8.3
2015-Jun-29 20:33N 22°09' E 114°29'30711.8
2015-Jun-28 18:24N 22°32' E 120°00'1113.2
2015-Jun-28 17:33N 22°33' E 120°12'6 5.8
2015-Jun-28 16:33N 22°34' E 120°18'0 0.1
2015-Jun-28 15:28N 22°34' E 120°18'0 0.0
2015-Jun-28 14:34N 22°34' E 120°18'0 0.0
2015-Jun-28 13:28N 22°34' E 120°18'0 0.0
2015-Jun-28 12:31N 22°34' E 120°18'0 0.0
2015-Jun-28 11:25N 22°34' E 120°18'0 0.0
2015-Jun-28 10:22N 22°34' E 120°18'0 0.0
2015-Jun-28 07:04N 22°34' E 120°18'0 0.8
2015-Jun-28 06:33N 22°34' E 120°19'6 6.4
2015-Jun-28 05:33N 22°30' E 120°14'1716.6
2015-Jun-28 04:33N 22°14' E 120°18'46416.2
2015-Jun-27 00:00N 25°48' E 127°48'31317.4 220 / 261003.710.8 2.032.027.426.0
2015-Jun-26 06:00N 29°48' E 131°36'30216.9 320 / 151003.0 5.4 1.530.026.022.0
2015-Jun-25 12:09N 33°57' E 134°56'1 1.2
2015-Jun-25 11:08N 33°59' E 134°56'1017.1
2015-Jun-25 10:33N 34°09' E 134°56'1615.8
2015-Jun-25 09:33N 34°24' E 135°02'1818.0
2015-Jun-25 08:33N 34°37' E 135°17'3 3.0
2015-Jun-25 07:29N 34°39' E 135°14'0 0.0
2015-Jun-25 06:29N 34°39' E 135°14'0 0.0
2015-Jun-25 05:29N 34°39' E 135°14'0 0.0
2015-Jun-25 04:29N 34°39' E 135°14'0 0.0
2015-Jun-25 03:29N 34°39' E 135°14'0 0.0
2015-Jun-25 02:29N 34°39' E 135°14'0 0.1
2015-Jun-25 01:23N 34°39' E 135°15'0 0.1
2015-Jun-25 00:29N 34°39' E 135°14'0 0.0
2015-Jun-24 23:29N 34°39' E 135°14'0 0.0
2015-Jun-24 22:29N 34°39' E 135°14'6 6.3
2015-Jun-24 21:33N 34°34' E 135°15'1817.9
2015-Jun-24 20:33N 34°20' E 135°01'1616.5
2015-Jun-24 19:33N 34°03' E 134°59'255 5.3
2015-Jun-22 19:33N 35°32' E 139°51'5 5.3
2015-Jun-22 18:32N 35°36' E 139°47'0 0.0
2015-Jun-22 17:32N 35°36' E 139°47'0 0.0
2015-Jun-22 16:32N 35°36' E 139°47'0 0.0
2015-Jun-22 15:32N 35°36' E 139°47'0 0.0
2015-Jun-22 14:32N 35°36' E 139°47'0 0.0
2015-Jun-22 13:32N 35°36' E 139°47'0 0.0
2015-Jun-22 12:29N 35°36' E 139°47'0 0.0
2015-Jun-22 11:29N 35°36' E 139°47'0 0.0
2015-Jun-22 10:32N 35°36' E 139°47'0 0.0
2015-Jun-22 09:32N 35°36' E 139°47'0 0.0
2015-Jun-22 08:32N 35°36' E 139°47'0 0.0
2015-Jun-22 07:32N 35°36' E 139°47'0 0.0
2015-Jun-22 06:32N 35°36' E 139°47'0 0.0
2015-Jun-22 05:26N 35°36' E 139°47'0 0.0
2015-Jun-22 04:32N 35°36' E 139°47'0 0.0
2015-Jun-22 03:27N 35°36' E 139°47'8 9.2
2015-Jun-22 02:33N 35°29' E 139°51'1312.8
2015-Jun-22 01:33N 35°17' E 139°45'1111.2
2015-Jun-22 00:33N 35°06' E 139°45'1616.1
2015-Jun-21 23:32N 34°55' E 139°30'  
Track history (hours):
 
Tides and Currents Weather Stations Pressure Air Temp Water Temp Dewpoint Dewpoint Depression Visibility Wind Speed Wind Dir Waves Ship Positions

OOCL Nagoya

Last reported at 2015-Jul-01 03:33 UTC. Time now 2015-Jul-04 05:07 UTC.
Position N 22°07' E 114°21'.

Length 261 m; draft 9 m.

Type: Cargo ship. MMSI: 477627900.

Date/timePositionNaut miles runAvg speedWind from/ knotsBaromVisibWave heightAir tempDewpointWater temp
2015-Jul-01 03:33N 22°07' E 114°21'1613.9
2015-Jul-01 02:22N 22°16' E 114°06'910.0
2015-Jul-01 01:31N 22°21' E 113°58'8 7.6
2015-Jul-01 00:32N 22°27' E 113°53'1 0.9
2015-Jun-30 23:29N 22°27' E 113°54'0 0.0
2015-Jun-30 22:29N 22°27' E 113°54'0 0.0
2015-Jun-30 21:29N 22°27' E 113°54'0 0.0
2015-Jun-30 20:29N 22°27' E 113°54'0 0.0
2015-Jun-30 19:23N 22°27' E 113°54'0 0.0
2015-Jun-30 18:29N 22°27' E 113°54'0 0.0
2015-Jun-30 17:29N 22°27' E 113°54'0 0.0
2015-Jun-30 16:29N 22°27' E 113°54'0 0.0
2015-Jun-30 15:29N 22°27' E 113°54'0 0.0
2015-Jun-30 14:30N 22°27' E 113°54'5 4.8
2015-Jun-30 13:33N 22°23' E 113°54'10 9.7
2015-Jun-30 12:29N 22°20' E 114°05'2 2.1
2015-Jun-30 11:26N 22°21' E 114°07'0 0.0
2015-Jun-30 01:23N 22°21' E 114°07'0 0.0
2015-Jun-30 00:23N 22°21' E 114°07'3 3.3
2015-Jun-29 23:33N 22°18' E 114°06'10 9.1
2015-Jun-29 22:26N 22°10' E 114°13'7 8.1
2015-Jun-29 21:34N 22°09' E 114°20'8 8.3
2015-Jun-29 20:33N 22°09' E 114°29'30711.8
2015-Jun-28 18:24N 22°32' E 120°00'1113.2
2015-Jun-28 17:33N 22°33' E 120°12'6 5.8
2015-Jun-28 16:33N 22°34' E 120°18'0 0.1
2015-Jun-28 15:28N 22°34' E 120°18'0 0.0
2015-Jun-28 14:34N 22°34' E 120°18'0 0.0
2015-Jun-28 13:28N 22°34' E 120°18'0 0.0
2015-Jun-28 12:31N 22°34' E 120°18'0 0.0
2015-Jun-28 11:25N 22°34' E 120°18'0 0.0
2015-Jun-28 10:22N 22°34' E 120°18'0 0.0
2015-Jun-28 07:04N 22°34' E 120°18'0 0.8
2015-Jun-28 06:33N 22°34' E 120°19'6 6.4
2015-Jun-28 05:33N 22°30' E 120°14'1716.6
2015-Jun-28 04:33N 22°14' E 120°18'46416.2
2015-Jun-27 00:00N 25°48' E 127°48'31317.4 220 / 261003.710.8 2.032.027.426.0
2015-Jun-26 06:00N 29°48' E 131°36'30216.9 320 / 151003.0 5.4 1.530.026.022.0
2015-Jun-25 12:09N 33°57' E 134°56'1 1.2
2015-Jun-25 11:08N 33°59' E 134°56'1017.1
2015-Jun-25 10:33N 34°09' E 134°56'1615.8
2015-Jun-25 09:33N 34°24' E 135°02'1818.0
2015-Jun-25 08:33N 34°37' E 135°17'3 3.0
2015-Jun-25 07:29N 34°39' E 135°14'0 0.0
2015-Jun-25 06:29N 34°39' E 135°14'0 0.0
2015-Jun-25 05:29N 34°39' E 135°14'0 0.0
2015-Jun-25 04:29N 34°39' E 135°14'0 0.0
2015-Jun-25 03:29N 34°39' E 135°14'0 0.0
2015-Jun-25 02:29N 34°39' E 135°14'0 0.1
2015-Jun-25 01:23N 34°39' E 135°15'0 0.1
2015-Jun-25 00:29N 34°39' E 135°14'0 0.0
2015-Jun-24 23:29N 34°39' E 135°14'0 0.0
2015-Jun-24 22:29N 34°39' E 135°14'6 6.3
2015-Jun-24 21:33N 34°34' E 135°15'1817.9
2015-Jun-24 20:33N 34°20' E 135°01'1616.5
2015-Jun-24 19:33N 34°03' E 134°59'255 5.3
2015-Jun-22 19:33N 35°32' E 139°51'5 5.3
2015-Jun-22 18:32N 35°36' E 139°47'0 0.0
2015-Jun-22 17:32N 35°36' E 139°47'0 0.0
2015-Jun-22 16:32N 35°36' E 139°47'0 0.0
2015-Jun-22 15:32N 35°36' E 139°47'0 0.0
2015-Jun-22 14:32N 35°36' E 139°47'0 0.0
2015-Jun-22 13:32N 35°36' E 139°47'0 0.0
2015-Jun-22 12:29N 35°36' E 139°47'0 0.0
2015-Jun-22 11:29N 35°36' E 139°47'0 0.0
2015-Jun-22 10:32N 35°36' E 139°47'0 0.0
2015-Jun-22 09:32N 35°36' E 139°47'0 0.0
2015-Jun-22 08:32N 35°36' E 139°47'0 0.0
2015-Jun-22 07:32N 35°36' E 139°47'0 0.0
2015-Jun-22 06:32N 35°36' E 139°47'0 0.0
2015-Jun-22 05:26N 35°36' E 139°47'0 0.0
2015-Jun-22 04:32N 35°36' E 139°47'0 0.0
2015-Jun-22 03:27N 35°36' E 139°47'8 9.2
2015-Jun-22 02:33N 35°29' E 139°51'1312.8
2015-Jun-22 01:33N 35°17' E 139°45'1111.2
2015-Jun-22 00:33N 35°06' E 139°45'1616.1
2015-Jun-21 23:32N 34°55' E 139°30'  

Dump ship's entire track history